createdAt,value
2023-01-11T00:02:12.047Z,101107.50
2023-01-11T00:05:14.410Z,101103.22
2023-01-11T00:08:16.240Z,101105.69
2023-01-11T00:11:18.592Z,101105.69
2023-01-11T00:14:20.395Z,101102.25
2023-01-11T00:17:22.543Z,101086.75
2023-01-11T00:20:25.066Z,101091.94
2023-01-11T00:23:26.905Z,101096.25
2023-01-11T00:26:28.789Z,101109.06
2023-01-11T00:29:31.186Z,101093.56
2023-01-11T00:32:32.992Z,101097.91
2023-01-11T00:35:34.847Z,101097.06
2023-01-11T00:38:53.628Z,101091.97
2023-01-11T00:42:14.035Z,101081.56
2023-01-11T00:45:34.451Z,101080.59
2023-01-11T00:48:36.287Z,101075.44
2023-01-11T00:51:38.140Z,101066.03
2023-01-11T00:54:41.492Z,101071.16
2023-01-11T00:57:43.319Z,101064.25
2023-01-11T01:00:45.273Z,101067.72
2023-01-11T01:03:47.124Z,101068.56
2023-01-11T01:06:48.939Z,101072.06
2023-01-11T01:09:50.921Z,101080.69
2023-01-11T01:13:11.447Z,101080.75
2023-01-11T01:16:13.296Z,101068.78
2023-01-11T01:19:16.012Z,101073.91
2023-01-11T01:22:17.792Z,101070.47
2023-01-11T01:25:19.884Z,101065.28
2023-01-11T01:28:22.393Z,101061.88
2023-01-11T01:31:24.293Z,101073.13
2023-01-11T01:34:26.420Z,101079.22
2023-01-11T01:37:28.276Z,101083.63
2023-01-11T01:40:30.307Z,101091.25
2023-01-11T01:43:51.875Z,101087.75
2023-01-11T01:46:53.697Z,101101.63
2023-01-11T01:49:58.095Z,101105.06
2023-01-11T01:53:07.584Z,101094.56
2023-01-11T01:56:38.371Z,101102.38
2023-01-11T01:59:41.597Z,101120.44
2023-01-11T02:02:45.220Z,101109.22
2023-01-11T02:05:48.458Z,101096.25
2023-01-11T02:09:01.449Z,101102.41
2023-01-11T02:12:03.885Z,101105.00
2023-01-11T02:15:07.473Z,101109.25
2023-01-11T02:18:13.714Z,101090.22
2023-01-11T02:21:26.804Z,101095.28
2023-01-11T02:24:49.317Z,101104.88
2023-01-11T02:28:07.668Z,101100.53
2023-01-11T02:31:24.652Z,101086.81
2023-01-11T02:34:44.310Z,101084.16
2023-01-11T02:38:05.947Z,101089.31
2023-01-11T02:41:59.943Z,101085.78
2023-01-11T02:45:46.919Z,101101.28
2023-01-11T02:49:11.902Z,101101.97
2023-01-11T02:52:37.623Z,101095.19
2023-01-11T02:55:46.030Z,101103.81
2023-01-11T02:58:51.080Z,101094.28
2023-01-11T03:01:55.823Z,101100.19
2023-01-11T03:04:57.771Z,101105.47
2023-01-11T03:08:10.839Z,101113.19
2023-01-11T03:11:59.706Z,101108.84
2023-01-11T03:15:31.221Z,101107.81
2023-01-11T03:18:42.010Z,101103.50
2023-01-11T03:22:42.319Z,101100.06
2023-01-11T03:26:22.815Z,101108.59
2023-01-11T03:29:44.958Z,101113.84
2023-01-11T03:32:52.223Z,101106.91
2023-01-11T03:36:15.294Z,101106.06
2023-01-11T03:39:32.189Z,101124.00
2023-01-11T03:42:57.448Z,101133.44
2023-01-11T03:46:09.946Z,101130.81
2023-01-11T03:49:17.877Z,101125.69
2023-01-11T03:52:25.741Z,101118.75
2023-01-11T03:55:33.482Z,101119.50
2023-01-11T03:58:35.835Z,101121.22
2023-01-11T04:01:38.136Z,101129.94
2023-01-11T04:04:40.168Z,101125.44
2023-01-11T04:07:42.077Z,101120.34
2023-01-11T04:10:43.950Z,101119.47
2023-01-11T04:13:45.744Z,101123.00
2023-01-11T04:16:47.706Z,101142.63
2023-01-11T04:19:49.637Z,101137.50
2023-01-11T04:22:51.450Z,101133.16
2023-01-11T04:25:53.468Z,101138.38
2023-01-11T04:28:55.314Z,101151.22
2023-01-11T04:31:57.584Z,101135.75
2023-01-11T04:34:59.384Z,101125.44
2023-01-11T04:38:01.192Z,101135.78
2023-01-11T04:41:23.755Z,101135.63
2023-01-11T04:44:25.694Z,101132.28
2023-01-11T04:47:27.612Z,101140.84
2023-01-11T04:50:29.485Z,101138.34
2023-01-11T04:53:31.405Z,101141.75
2023-01-11T04:56:33.717Z,101145.84
2023-01-11T04:59:35.523Z,101139.19
2023-01-11T05:02:38.236Z,101140.00
2023-01-11T05:05:39.964Z,101158.88
2023-01-11T05:08:46.744Z,101151.06
2023-01-11T05:11:48.829Z,101148.56
2023-01-11T05:14:50.733Z,101142.44
2023-01-11T05:17:52.640Z,101142.34
2023-01-11T05:20:54.551Z,101136.34
2023-01-11T05:23:56.533Z,101128.59
2023-01-11T05:26:58.487Z,101139.06
2023-01-11T05:30:00.379Z,101140.75
2023-01-11T05:33:02.502Z,101146.78
2023-01-11T05:36:07.730Z,101148.47
2023-01-11T05:39:11.392Z,101147.69
2023-01-11T05:42:13.294Z,101144.28
2023-01-11T05:45:31.663Z,101136.53
2023-01-11T05:48:33.624Z,101145.22
2023-01-11T05:51:38.103Z,101143.41
2023-01-11T05:54:40.024Z,101136.56
2023-01-11T05:57:43.305Z,101130.63
2023-01-11T06:00:48.865Z,101122.06
2023-01-11T06:03:51.552Z,101128.03
2023-01-11T06:06:53.424Z,101118.63
2023-01-11T06:09:55.351Z,101132.50
2023-01-11T06:13:17.301Z,101128.31
2023-01-11T06:16:21.193Z,101132.56
2023-01-11T06:19:23.250Z,101136.94
2023-01-11T06:22:25.193Z,101132.66
2023-01-11T06:25:27.244Z,101126.72
2023-01-11T06:28:29.255Z,101121.63
2023-01-11T06:31:31.467Z,101140.59
2023-01-11T06:34:33.491Z,101132.09
2023-01-11T06:37:35.451Z,101133.03
2023-01-11T06:40:41.573Z,101132.28
2023-01-11T06:43:43.663Z,101131.44
2023-01-11T06:46:45.695Z,101139.31
2023-01-11T06:49:47.635Z,101131.72
2023-01-11T06:52:58.054Z,101139.66
2023-01-11T06:56:00.130Z,101135.47
2023-01-11T06:59:02.391Z,101134.69
2023-01-11T07:02:04.563Z,101136.56
2023-01-11T07:05:06.798Z,101114.25
2023-01-11T07:08:08.957Z,101118.66
2023-01-11T07:11:11.170Z,101125.59
2023-01-11T07:14:15.310Z,101119.66
2023-01-11T07:17:17.367Z,101126.63
2023-01-11T07:20:19.377Z,101107.81
2023-01-11T07:23:21.460Z,101111.31
2023-01-11T07:26:23.640Z,101095.97
2023-01-11T07:29:25.681Z,101112.50
2023-01-11T07:32:28.642Z,101096.09
2023-01-11T07:35:30.694Z,101108.28
2023-01-11T07:38:33.058Z,101103.09
2023-01-11T07:41:53.641Z,101103.13
2023-01-11T07:44:55.592Z,101079.81
2023-01-11T07:47:57.519Z,101082.44
2023-01-11T07:50:59.446Z,101092.84
2023-01-11T07:54:02.724Z,101095.47
2023-01-11T07:57:04.630Z,101104.97
2023-01-11T08:00:07.183Z,101101.53
2023-01-11T08:03:13.603Z,101099.78
2023-01-11T08:06:15.834Z,101100.66
2023-01-11T08:09:17.810Z,101102.38
2023-01-11T08:12:38.559Z,101095.44
2023-01-11T08:15:42.769Z,101094.47
2023-01-11T08:18:44.759Z,101104.00
2023-01-11T08:21:46.682Z,101086.69
2023-01-11T08:24:48.576Z,101084.06
2023-01-11T08:27:50.602Z,101083.19
2023-01-11T08:30:52.561Z,101079.66
2023-01-11T08:33:54.477Z,101088.16
2023-01-11T08:36:57.685Z,101081.16
2023-01-11T08:39:59.675Z,101065.53
2023-01-11T08:43:01.949Z,101064.44
2023-01-11T08:46:04.077Z,101062.75
2023-01-11T08:49:12.071Z,101056.63
2023-01-11T08:52:14.652Z,101049.53
2023-01-11T08:55:16.787Z,101052.06
2023-01-11T08:58:21.497Z,101050.84
2023-01-11T09:01:23.586Z,101055.28
2023-01-11T09:04:26.584Z,101044.78
2023-01-11T09:07:28.386Z,101048.13
2023-01-11T09:10:30.392Z,101028.78
2023-01-11T09:13:32.432Z,101041.81
2023-01-11T09:16:34.429Z,101041.56
2023-01-11T09:19:36.893Z,101032.06
2023-01-11T09:22:38.813Z,101035.41
2023-01-11T09:25:40.682Z,101022.44
2023-01-11T09:28:42.635Z,101033.66
2023-01-11T09:31:44.567Z,101022.09
2023-01-11T09:34:47.355Z,101020.34
2023-01-11T09:37:50.482Z,101020.44
2023-01-11T09:41:30.328Z,101009.72
2023-01-11T09:44:36.085Z,101005.25
2023-01-11T09:47:48.217Z,101012.22
2023-01-11T09:50:50.265Z,100999.78
2023-01-11T09:53:52.450Z,101005.91
2023-01-11T09:57:26.730Z,100999.56
2023-01-11T10:00:40.412Z,100995.97
2023-01-11T10:04:04.130Z,100996.09
2023-01-11T10:07:13.107Z,100988.25
2023-01-11T10:18:22.928Z,100988.06
2023-01-11T10:18:30.182Z,100979.50
2023-01-11T10:21:34.064Z,100981.22
2023-01-11T10:24:49.004Z,100976.50
2023-01-11T10:27:59.032Z,100976.66
2023-01-11T10:31:15.796Z,100981.13
2023-01-11T10:34:39.780Z,100979.03
2023-01-11T10:38:04.907Z,100976.22
2023-01-11T10:41:22.158Z,100959.66
2023-01-11T10:44:40.775Z,100964.88
2023-01-11T10:48:11.976Z,100957.66
2023-01-11T10:51:37.276Z,100952.09
2023-01-11T10:54:45.051Z,100941.59
2023-01-11T10:57:59.492Z,100925.69
2023-01-11T11:01:22.725Z,100930.81
2023-01-11T11:05:10.217Z,100921.13
2023-01-11T11:08:15.940Z,100925.41
2023-01-11T11:11:35.634Z,100933.00
2023-01-11T11:15:04.571Z,100923.41
2023-01-11T11:18:06.756Z,100925.09
2023-01-11T11:21:23.911Z,100919.03
2023-01-11T11:24:33.254Z,100912.81
2023-01-11T11:27:47.861Z,100918.63
2023-01-11T11:30:53.185Z,100923.00
2023-01-11T11:33:55.295Z,100918.72
2023-01-11T11:36:59.450Z,100919.53
2023-01-11T11:40:01.697Z,100924.44
2023-01-11T11:43:19.963Z,100922.78
2023-01-11T11:46:27.581Z,100923.84
2023-01-11T11:49:35.530Z,100924.53
2023-01-11T11:52:42.332Z,100919.28
2023-01-11T11:55:44.572Z,100922.84
2023-01-11T11:58:47.290Z,100914.03
2023-01-11T12:02:00.796Z,100922.66
2023-01-11T12:05:11.075Z,100922.63
2023-01-11T12:08:15.043Z,100914.88
2023-01-11T12:11:22.661Z,100904.28
2023-01-11T12:14:29.010Z,100912.19
2023-01-11T12:17:33.453Z,100896.69
2023-01-11T12:20:41.114Z,100894.13
2023-01-11T12:23:43.008Z,100905.41
2023-01-11T12:26:57.267Z,100890.41
2023-01-11T12:30:25.806Z,100897.59
2023-01-11T12:34:06.280Z,100885.03
2023-01-11T12:37:16.933Z,100881.50
2023-01-11T12:40:40.501Z,100876.22
2023-01-11T12:43:51.795Z,100866.63
2023-01-11T12:47:30.675Z,100885.78
2023-01-11T12:50:47.708Z,100872.91
2023-01-11T12:54:19.209Z,100882.41
2023-01-11T12:57:44.759Z,100879.03
2023-01-11T13:00:49.315Z,100890.31
2023-01-11T13:04:32.504Z,100879.88
2023-01-11T13:07:52.046Z,100882.69
2023-01-11T13:11:01.286Z,100885.97
2023-01-11T13:14:10.492Z,100881.66
2023-01-11T13:17:37.429Z,100876.38
2023-01-11T13:21:02.560Z,100870.66
2023-01-11T13:24:16.627Z,100866.28
2023-01-11T13:27:23.325Z,100866.66
2023-01-11T13:30:26.029Z,100872.63
2023-01-11T13:33:31.080Z,100863.16
2023-01-11T13:36:45.848Z,100871.84
2023-01-11T13:40:04.837Z,100879.81
2023-01-11T13:43:13.541Z,100881.69
2023-01-11T13:46:40.100Z,100889.72
2023-01-11T13:49:59.346Z,100899.28
2023-01-11T13:53:06.139Z,100897.56
2023-01-11T13:56:18.922Z,100891.56
2023-01-11T13:59:45.794Z,100898.69
2023-01-11T14:03:18.847Z,100900.56
2023-01-11T14:06:42.570Z,100904.03
2023-01-11T14:10:20.872Z,100917.28
2023-01-11T14:13:50.688Z,100912.00
2023-01-11T14:17:01.405Z,100911.28
2023-01-11T14:20:18.393Z,100900.06
2023-01-11T14:23:24.266Z,100908.03
2023-01-11T14:26:35.341Z,100907.28
2023-01-11T14:29:52.364Z,100905.41
2023-01-11T14:33:24.801Z,100913.50
2023-01-11T14:36:51.736Z,100900.59
2023-01-11T14:40:13.919Z,100897.25
2023-01-11T14:43:56.980Z,100900.78
2023-01-11T14:47:11.691Z,100907.88
2023-01-11T14:50:41.114Z,100905.44
2023-01-11T14:53:48.874Z,100894.06
2023-01-11T14:56:58.472Z,100895.84
2023-01-11T15:00:01.805Z,100899.47
2023-01-11T17:42:31.487Z,100905.91
2023-01-11T17:45:33.978Z,100904.16
2023-01-11T17:48:36.043Z,100893.78
2023-01-11T17:51:39.750Z,100910.22
2023-01-11T17:54:41.649Z,100906.66
2023-01-11T17:57:44.133Z,100896.19
2023-01-11T18:01:07.814Z,100881.47
2023-01-11T18:04:19.032Z,100876.16
2023-01-11T18:07:21.224Z,100873.50
2023-01-11T18:10:32.881Z,100865.72
2023-01-11T18:13:35.054Z,100847.56
2023-01-11T18:16:37.116Z,100842.31
2023-01-11T18:19:42.055Z,100844.06
2023-01-11T18:23:05.287Z,100847.53
2023-01-11T18:26:27.288Z,100845.78
2023-01-11T18:29:38.418Z,100850.91
2023-01-11T18:32:43.239Z,100846.66
2023-01-11T18:35:47.751Z,100850.09
2023-01-11T18:38:50.577Z,100850.94
2023-01-11T18:42:08.449Z,100842.25
2023-01-11T18:45:11.509Z,100843.97
2023-01-11T18:48:14.329Z,100842.25
2023-01-11T18:51:28.260Z,100830.88
2023-01-11T18:54:30.215Z,100840.38
2023-01-11T18:57:32.161Z,100839.38
2023-01-11T19:00:35.014Z,100834.13
2023-01-11T19:03:37.827Z,100824.53
2023-01-11T19:06:39.708Z,100818.34
2023-01-11T19:09:41.577Z,100818.16
2023-01-11T19:12:44.573Z,100821.66
2023-01-11T19:15:46.883Z,100817.34
2023-01-11T19:18:48.836Z,100815.38
2023-01-11T19:21:50.765Z,100815.09
2023-01-11T19:24:52.669Z,100830.75
2023-01-11T19:27:55.102Z,100833.34
2023-01-11T19:30:57.287Z,100835.06
2023-01-11T19:33:59.756Z,100852.38
2023-01-11T19:37:01.959Z,100867.16
2023-01-11T19:40:05.859Z,100881.72
2023-01-11T19:43:07.820Z,100887.81
2023-01-11T19:46:11.611Z,100894.84
2023-01-11T19:49:13.803Z,100894.91
2023-01-11T19:52:19.333Z,100899.28
2023-01-11T19:55:21.297Z,100892.28
2023-01-11T19:58:23.188Z,100901.84
2023-01-11T20:01:25.159Z,100907.91
2023-01-11T20:04:27.206Z,100906.22
2023-01-11T20:07:29.110Z,100892.16
2023-01-11T20:10:30.930Z,100900.00
2023-01-11T20:13:33.353Z,100889.56
2023-01-11T20:16:35.307Z,100882.63
2023-01-11T20:19:37.330Z,100884.28
2023-01-11T20:22:39.425Z,100864.31
2023-01-11T20:25:41.406Z,100846.94
2023-01-11T20:28:48.957Z,100844.38
2023-01-11T20:31:50.866Z,100858.25
2023-01-11T20:34:53.822Z,100850.44
2023-01-11T20:37:55.825Z,100842.50
2023-01-11T20:40:57.806Z,100837.28
2023-01-11T20:43:59.972Z,100842.31
2023-01-11T20:47:01.964Z,100850.44
2023-01-11T20:50:04.179Z,100832.78
2023-01-11T20:53:06.069Z,100837.06
2023-01-11T20:56:09.516Z,100834.63
2023-01-11T20:59:13.653Z,100830.13
2023-01-11T21:02:15.586Z,100837.94
2023-01-11T21:05:17.588Z,100827.59
2023-01-11T21:08:19.469Z,100829.34
2023-01-11T21:11:21.327Z,100831.16
2023-01-11T21:14:23.449Z,100833.91
2023-01-11T21:17:25.420Z,100823.53
2023-01-11T21:20:27.320Z,100820.06
2023-01-11T21:23:29.269Z,100815.84
2023-01-11T21:26:32.508Z,100819.34
2023-01-11T21:29:34.705Z,100816.75
2023-01-11T21:32:36.574Z,100816.91
2023-01-11T21:35:38.493Z,100816.91
2023-01-11T21:38:40.648Z,100826.47
2023-01-11T21:41:55.468Z,100826.47
2023-01-11T21:44:57.363Z,100829.19
2023-01-11T21:47:59.484Z,100835.41
2023-01-11T21:51:01.839Z,100835.41
2023-01-11T21:54:05.600Z,100840.56
2023-01-11T21:57:07.465Z,100843.13
2023-01-11T22:00:11.046Z,100840.41
2023-01-11T22:03:16.144Z,100840.41
2023-01-11T22:06:18.333Z,100848.13
2023-01-11T22:09:21.140Z,100851.50
2023-01-11T22:12:23.239Z,100854.94
2023-01-11T22:15:25.098Z,100852.44
2023-01-11T22:18:27.141Z,100853.34
2023-01-11T22:21:29.644Z,100852.47
2023-01-11T22:24:31.603Z,100847.13
2023-01-11T22:27:33.665Z,100842.78
2023-01-11T22:30:35.540Z,100841.81
2023-01-11T22:33:37.404Z,100829.66
2023-01-11T22:36:39.890Z,100826.19
2023-01-11T22:39:41.760Z,100820.94
2023-01-11T22:42:43.814Z,100818.22
2023-01-11T22:45:56.750Z,100815.63
2023-01-11T22:48:59.110Z,100817.31
2023-01-11T22:52:01.123Z,100812.16
2023-01-11T22:55:03.098Z,100813.84
2023-01-11T22:58:05.048Z,100813.84
2023-01-11T23:01:39.670Z,100802.56
2023-01-11T23:04:41.533Z,100812.16
2023-01-11T23:07:43.741Z,100812.09
2023-01-11T23:10:45.665Z,100808.53
2023-01-11T23:13:55.037Z,100808.56
2023-01-11T23:17:04.195Z,100804.13
2023-01-11T23:20:06.371Z,100798.97
2023-01-11T23:23:08.280Z,100798.03
2023-01-11T23:26:11.923Z,100792.91
2023-01-11T23:29:13.985Z,100789.34
2023-01-11T23:32:15.918Z,100787.66
2023-01-11T23:35:17.819Z,100797.44
2023-01-11T23:38:19.751Z,100791.25
2023-01-11T23:41:40.925Z,100790.34
2023-01-11T23:44:42.840Z,100792.16
2023-01-11T23:47:44.709Z,100801.78
2023-01-11T23:50:48.374Z,100802.72
2023-01-11T23:53:50.782Z,100808.03
2023-01-11T23:56:52.739Z,100814.06
2023-01-11T23:59:54.702Z,100803.59
